Time;durP1;ratioP1;P1;durP2;ratioP2;P2;SDS_P1;SDS_P2;PMS_P1;PMS_P2;Temp;Humidity;BMP_temperature;BMP_pressure;BME280_temperature;BME280_humidity;BME280_pressure;Samples;Min_cycle;Max_cycle;Signal;HPM_P1;HPM_P2
2023/07/26 00:00:13;;;;;;;;;;;24.40;48.60;;;;;;3053023;19;4668;-25
2023/07/26 00:01:14;;;;;;;;;;;24.40;48.50;;;;;;3053742;19;4660;-25
2023/07/26 00:02:14;;;;;;;;;;;24.40;48.50;;;;;;3053247;19;4668;-29
2023/07/26 00:03:15;;;;;;;;;;;24.40;48.70;;;;;;3054597;19;4615;-28
2023/07/26 00:04:16;;;;;;;;;;;24.40;48.60;;;;;;3054101;19;4663;-28
2023/07/26 00:05:17;;;;;;;;;;;24.40;48.60;;;;;;3053354;19;4654;-28
2023/07/26 00:06:17;;;;;;;;;;;24.40;48.50;;;;;;3053816;19;4728;-28
2023/07/26 00:07:18;;;;;;;;;;;24.40;48.40;;;;;;3054313;19;4814;-27
2023/07/26 00:08:19;;;;;;;;;;;24.40;48.60;;;;;;3053570;19;4652;-28
2023/07/26 00:09:19;;;;;;;;;;;24.40;48.50;;;;;;3054796;19;4656;-29
2023/07/26 00:10:20;;;;;;;;;;;24.40;48.50;;;;;;3054677;19;4698;-28
2023/07/26 00:11:21;;;;;;;;;;;24.40;48.50;;;;;;3053518;19;4844;-29
2023/07/26 00:12:21;;;;;;;;;;;24.40;48.50;;;;;;3054833;19;4662;-24
2023/07/26 00:13:22;;;;;;;;;;;24.40;48.40;;;;;;3054768;19;4747;-25
2023/07/26 00:14:23;;;;;;;;;;;24.40;48.40;;;;;;3054435;19;4580;-25
2023/07/26 00:15:23;;;;;;;;;;;24.40;48.50;;;;;;3054798;19;4564;-32
2023/07/26 00:16:24;;;;;;;;;;;24.30;48.50;;;;;;3055082;19;4644;-25
2023/07/26 00:17:25;;;;;;;;;;;24.40;48.40;;;;;;3054819;19;4595;-25
2023/07/26 00:18:26;;;;;;;;;;;24.30;48.40;;;;;;3054188;19;4698;-26
2023/07/26 00:19:26;;;;;;;;;;;24.30;48.40;;;;;;3054023;19;4721;-25
2023/07/26 00:20:27;;;;;;;;;;;24.30;48.50;;;;;;3053504;19;4724;-25
2023/07/26 00:21:28;;;;;;;;;;;24.30;49.00;;;;;;3053032;19;4713;-24
2023/07/26 00:22:28;;;;;;;;;;;24.30;48.50;;;;;;3052929;19;4636;-25
2023/07/26 00:23:29;;;;;;;;;;;24.30;48.40;;;;;;3052951;19;5646;-27
2023/07/26 00:24:30;;;;;;;;;;;24.30;48.50;;;;;;3054343;19;4783;-25
2023/07/26 00:25:30;;;;;;;;;;;24.30;48.40;;;;;;3053713;19;4620;-29
2023/07/26 00:26:31;;;;;;;;;;;24.30;48.40;;;;;;3052484;19;4776;-25
2023/07/26 00:27:34;;;;;;;;;;;24.30;48.50;;;;;;3053143;19;4622;-24
2023/07/26 00:28:34;;;;;;;;;;;24.30;48.30;;;;;;3053912;19;4574;-24
2023/07/26 00:29:35;;;;;;;;;;;24.30;48.20;;;;;;3054149;19;4630;-25
2023/07/26 00:30:35;;;;;;;;;;;24.30;48.50;;;;;;3054069;19;4774;-25
2023/07/26 00:31:36;;;;;;;;;;;24.30;48.40;;;;;;3053655;19;4650;-25
2023/07/26 00:32:37;;;;;;;;;;;24.30;48.50;;;;;;3054123;19;4652;-32
2023/07/26 00:33:37;;;;;;;;;;;24.30;48.50;;;;;;3054366;19;4637;-25
2023/07/26 00:34:38;;;;;;;;;;;24.30;48.50;;;;;;3053485;19;4617;-34
2023/07/26 00:35:42;;;;;;;;;;;24.30;48.40;;;;;;3053925;19;4644;-24
2023/07/26 00:36:43;;;;;;;;;;;24.30;48.40;;;;;;3054358;19;4662;-25
2023/07/26 00:37:43;;;;;;;;;;;24.30;48.50;;;;;;3054652;19;4690;-34
2023/07/26 00:38:44;;;;;;;;;;;24.30;48.50;;;;;;3054602;19;4784;-25
2023/07/26 00:39:45;;;;;;;;;;;24.30;48.50;;;;;;3054131;19;4565;-25
2023/07/26 00:40:46;;;;;;;;;;;24.30;48.50;;;;;;3053141;19;4761;-26
2023/07/26 00:41:47;;;;;;;;;;;24.30;48.50;;;;;;3053380;19;5228;-34
2023/07/26 00:42:47;;;;;;;;;;;24.30;48.30;;;;;;3054254;19;4642;-25
2023/07/26 00:43:48;;;;;;;;;;;24.30;48.60;;;;;;3054283;19;4797;-25
2023/07/26 00:44:49;;;;;;;;;;;24.30;48.40;;;;;;3053803;19;4620;-25
2023/07/26 00:45:50;;;;;;;;;;;24.30;48.70;;;;;;3054028;19;4642;-25
2023/07/26 00:46:50;;;;;;;;;;;24.30;48.50;;;;;;3052327;19;4655;-27
2023/07/26 00:47:51;;;;;;;;;;;24.30;48.50;;;;;;3052227;19;4630;-25
2023/07/26 00:48:52;;;;;;;;;;;24.20;48.40;;;;;;3053295;19;4650;-25
2023/07/26 00:49:52;;;;;;;;;;;24.30;48.40;;;;;;3052382;19;4652;-25
2023/07/26 00:50:53;;;;;;;;;;;24.20;48.50;;;;;;3052562;19;4662;-25
2023/07/26 00:51:53;;;;;;;;;;;24.30;48.40;;;;;;3052437;19;4656;-34
2023/07/26 00:52:54;;;;;;;;;;;24.20;48.50;;;;;;3053151;19;4705;-25
2023/07/26 00:53:55;;;;;;;;;;;24.20;48.60;;;;;;3052795;19;4524;-25
2023/07/26 00:54:55;;;;;;;;;;;24.20;48.30;;;;;;3053855;19;4623;-25
2023/07/26 00:55:56;;;;;;;;;;;24.20;48.50;;;;;;3053800;19;4594;-26
2023/07/26 00:56:57;;;;;;;;;;;24.20;48.50;;;;;;3032374;19;4645;-28
2023/07/26 00:57:57;;;;;;;;;;;24.20;48.40;;;;;;3053663;19;4771;-24
2023/07/26 00:58:58;;;;;;;;;;;24.20;48.60;;;;;;3054119;19;4604;-25
2023/07/26 00:59:59;;;;;;;;;;;24.20;48.50;;;;;;3053483;19;4612;-30
2023/07/26 01:01:00;;;;;;;;;;;24.20;48.60;;;;;;3053444;19;4658;-25
2023/07/26 01:02:00;;;;;;;;;;;24.20;48.50;;;;;;3052781;19;4645;-25
2023/07/26 01:04:04;;;;;;;;;;;24.20;48.40;;;;;;3051936;19;5862;-89
2023/07/26 01:05:04;;;;;;;;;;;24.20;48.80;;;;;;3032362;19;4551;-89
2023/07/26 01:06:25;;;;;;;;;;;24.20;48.40;;;;;;3052679;19;4855;-88
2023/07/26 01:07:48;;;;;;;;;;;24.20;48.50;;;;;;2950401;19;2004931;-90
2023/07/26 01:09:12;;;;;;;;;;;24.20;48.60;;;;;;3053976;19;4601;-91
2023/07/26 01:10:28;;;;;;;;;;;24.20;48.40;;;;;;3052288;19;5076;-89
2023/07/26 01:11:40;;;;;;;;;;;24.20;48.60;;;;;;3053412;19;5098;-89
2023/07/26 01:12:53;;;;;;;;;;;24.20;48.50;;;;;;3053412;19;5092;-90
2023/07/26 01:13:58;;;;;;;;;;;24.20;48.50;;;;;;3053398;19;4584;-90
2023/07/26 01:15:03;;;;;;;;;;;24.20;48.40;;;;;;3053101;19;5101;-92
2023/07/26 01:16:03;;;;;;;;;;;24.20;48.70;;;;;;3052774;19;5151;-90
2023/07/26 01:17:07;;;;;;;;;;;24.10;48.50;;;;;;3052471;19;4682;-91
2023/07/26 01:18:18;;;;;;;;;;;24.20;48.50;;;;;;3053413;19;5140;-91
2023/07/26 01:19:19;;;;;;;;;;;24.20;48.40;;;;;;3053638;19;5258;-91
2023/07/26 01:20:21;;;;;;;;;;;24.10;48.60;;;;;;3054669;19;5112;-90
2023/07/26 01:21:23;;;;;;;;;;;24.10;48.40;;;;;;3055131;19;4669;-91
2023/07/26 01:22:24;;;;;;;;;;;24.10;48.50;;;;;;3054115;19;4592;-89
2023/07/26 01:23:27;;;;;;;;;;;24.10;48.60;;;;;;3053295;19;5158;-91
2023/07/26 01:24:28;;;;;;;;;;;24.10;48.50;;;;;;3032474;19;4605;-89
2023/07/26 01:25:29;;;;;;;;;;;24.10;48.50;;;;;;3053258;19;4612;-91
2023/07/26 01:26:30;;;;;;;;;;;24.10;48.50;;;;;;3052857;19;5429;-89
2023/07/26 01:27:31;;;;;;;;;;;24.10;48.40;;;;;;3053044;19;5333;-91
2023/07/26 01:28:32;;;;;;;;;;;24.10;48.30;;;;;;3054155;19;4595;-90
2023/07/26 01:29:32;;;;;;;;;;;24.10;48.60;;;;;;3032643;19;4561;-89
2023/07/26 01:30:33;;;;;;;;;;;24.10;48.30;;;;;;3031934;19;5159;-89
2023/07/26 01:31:34;;;;;;;;;;;24.10;48.30;;;;;;3053871;19;4647;-90
2023/07/26 01:32:34;;;;;;;;;;;24.10;48.40;;;;;;3053126;19;5221;-91
2023/07/26 01:33:35;;;;;;;;;;;24.10;48.20;;;;;;3052962;19;5127;-90
2023/07/26 01:34:37;;;;;;;;;;;24.10;48.20;;;;;;3032663;19;5068;-90
2023/07/26 01:35:38;;;;;;;;;;;24.10;48.30;;;;;;3053084;19;4571;-91
2023/07/26 01:36:40;;;;;;;;;;;24.10;48.30;;;;;;3053948;19;4555;-90
2023/07/26 01:37:41;;;;;;;;;;;24.10;48.20;;;;;;3053975;19;5121;-89
2023/07/26 01:38:42;;;;;;;;;;;24.10;48.20;;;;;;3051072;19;5374;-88
2023/07/26 01:39:44;;;;;;;;;;;24.10;48.20;;;;;;3054033;19;5073;-88
2023/07/26 01:40:45;;;;;;;;;;;24.10;48.20;;;;;;3053816;19;4637;-90
2023/07/26 01:41:46;;;;;;;;;;;24.10;48.30;;;;;;3054134;19;4599;-89
2023/07/26 01:42:46;;;;;;;;;;;24.10;48.30;;;;;;3032801;19;4629;-90
2023/07/26 01:43:49;;;;;;;;;;;24.40;48.20;;;;;;3053143;19;4571;-90
2023/07/26 01:44:49;;;;;;;;;;;24.10;48.20;;;;;;3054296;19;4611;-88
2023/07/26 01:45:51;;;;;;;;;;;24.10;48.10;;;;;;3053614;19;5317;-89
2023/07/26 01:46:52;;;;;;;;;;;24.10;48.10;;;;;;3053568;19;4555;-89
2023/07/26 01:47:54;;;;;;;;;;;24.10;48.30;;;;;;3053913;19;4689;-90
2023/07/26 01:48:55;;;;;;;;;;;24.10;47.90;;;;;;3044271;19;5194;-89
2023/07/26 01:49:57;;;;;;;;;;;24.10;48.20;;;;;;3053580;19;5181;-90
2023/07/26 01:50:58;;;;;;;;;;;24.10;48.20;;;;;;3053399;19;5097;-90
2023/07/26 01:52:00;;;;;;;;;;;24.10;48.00;;;;;;3054012;19;5138;-89
2023/07/26 01:53:01;;;;;;;;;;;24.10;48.10;;;;;;3053278;19;4634;-90
2023/07/26 01:54:08;;;;;;;;;;;24.00;48.10;;;;;;3053435;19;4741;-89
2023/07/26 01:55:09;;;;;;;;;;;24.00;47.90;;;;;;3053595;19;5171;-89
2023/07/26 01:56:09;;;;;;;;;;;24.00;48.00;;;;;;3053258;19;5092;-91
2023/07/26 01:57:11;;;;;;;;;;;24.00;48.00;;;;;;3053504;19;5104;-88
2023/07/26 01:58:11;;;;;;;;;;;24.10;48.00;;;;;;3053274;19;5140;-89
2023/07/26 01:59:12;;;;;;;;;;;24.00;47.90;;;;;;3052745;19;5231;-92
2023/07/26 02:00:13;;;;;;;;;;;24.00;48.00;;;;;;3053804;19;4680;-90
2023/07/26 02:01:14;;;;;;;;;;;24.00;48.00;;;;;;3053097;19;5078;-89
2023/07/26 02:02:14;;;;;;;;;;;24.00;47.90;;;;;;3051419;19;5181;-90
2023/07/26 02:03:17;;;;;;;;;;;24.00;47.90;;;;;;3052369;19;1095;-90
2023/07/26 02:04:19;;;;;;;;;;;24.00;48.00;;;;;;3052279;19;6149;-90
2023/07/26 02:05:20;;;;;;;;;;;24.00;47.90;;;;;;3053080;19;5228;-88
2023/07/26 02:06:20;;;;;;;;;;;24.00;48.00;;;;;;3052614;19;5234;-89
2023/07/26 02:07:22;;;;;;;;;;;24.00;48.00;;;;;;3052928;19;5132;-91
2023/07/26 02:08:25;;;;;;;;;;;24.00;47.80;;;;;;3053225;19;5125;-91
2023/07/26 02:09:26;;;;;;;;;;;24.00;48.10;;;;;;3053006;19;5295;-90
2023/07/26 02:10:26;;;;;;;;;;;24.00;47.90;;;;;;3053745;19;5105;-90
2023/07/26 02:11:27;;;;;;;;;;;24.00;47.80;;;;;;3054809;19;4616;-89
2023/07/26 02:12:29;;;;;;;;;;;24.00;47.80;;;;;;3054444;19;5357;-90
2023/07/26 02:13:29;;;;;;;;;;;24.00;47.90;;;;;;3054713;19;5080;-89
2023/07/26 02:14:30;;;;;;;;;;;24.00;47.90;;;;;;3054685;19;4574;-91
2023/07/26 02:15:35;;;;;;;;;;;24.00;47.80;;;;;;3053891;19;4987;-89
2023/07/26 02:16:36;;;;;;;;;;;24.00;47.90;;;;;;3055607;19;5089;-90
2023/07/26 02:17:37;;;;;;;;;;;24.00;47.90;;;;;;3052572;19;4561;-88
2023/07/26 02:18:39;;;;;;;;;;;24.00;47.80;;;;;;3054897;19;5114;-89
2023/07/26 02:19:39;;;;;;;;;;;23.90;47.80;;;;;;3054939;19;4591;-89
2023/07/26 02:20:41;;;;;;;;;;;23.90;47.80;;;;;;3033709;19;5202;-89
2023/07/26 02:21:43;;;;;;;;;;;23.90;47.70;;;;;;3054533;19;4537;-91
2023/07/26 02:22:43;;;;;;;;;;;23.90;47.80;;;;;;3054962;19;5103;-88
2023/07/26 02:23:49;;;;;;;;;;;24.00;48.00;;;;;;3054821;19;5038;-92
2023/07/26 02:24:50;;;;;;;;;;;23.90;47.80;;;;;;3054787;19;5163;-89
2023/07/26 02:25:51;;;;;;;;;;;23.90;47.80;;;;;;3054515;19;5407;-91
2023/07/26 02:26:52;;;;;;;;;;;23.90;47.90;;;;;;3045593;19;4724;-90
2023/07/26 02:27:54;;;;;;;;;;;24.00;48.00;;;;;;3032945;19;5086;-90
2023/07/26 02:28:56;;;;;;;;;;;23.90;47.70;;;;;;3054299;19;5178;-90
2023/07/26 02:29:56;;;;;;;;;;;23.90;47.70;;;;;;3055200;19;5215;-89
2023/07/26 02:30:57;;;;;;;;;;;23.90;47.70;;;;;;3054610;19;4627;-93
2023/07/26 02:31:58;;;;;;;;;;;23.90;47.80;;;;;;3034543;19;5229;-89
2023/07/26 02:32:59;;;;;;;;;;;23.90;47.80;;;;;;3055039;19;4563;-89
2023/07/26 02:34:01;;;;;;;;;;;23.90;47.90;;;;;;3033613;19;5078;-90
2023/07/26 02:35:03;;;;;;;;;;;23.90;47.80;;;;;;3034296;19;5145;-88
2023/07/26 02:36:06;;;;;;;;;;;23.90;47.80;;;;;;3033848;19;4751;-89
2023/07/26 02:37:07;;;;;;;;;;;23.90;47.70;;;;;;3054004;19;5621;-91
2023/07/26 02:38:07;;;;;;;;;;;23.90;47.80;;;;;;3054598;19;797;-90
2023/07/26 02:39:09;;;;;;;;;;;23.90;47.70;;;;;;3032330;19;4657;-89
2023/07/26 02:40:12;;;;;;;;;;;23.90;47.80;;;;;;3053612;19;5231;-90
2023/07/26 02:41:13;;;;;;;;;;;23.90;47.70;;;;;;3054218;19;5182;-89
2023/07/26 02:42:14;;;;;;;;;;;23.90;47.90;;;;;;3053790;19;5282;-89
2023/07/26 02:43:14;;;;;;;;;;;23.70;47.70;;;;;;3053272;19;4589;-88
2023/07/26 02:44:15;;;;;;;;;;;23.90;47.90;;;;;;3053278;19;5076;-89
2023/07/26 02:45:16;;;;;;;;;;;23.90;47.70;;;;;;3053714;19;5086;-90
2023/07/26 02:46:17;;;;;;;;;;;23.90;47.80;;;;;;3032128;19;5210;-90
2023/07/26 02:47:18;;;;;;;;;;;23.90;47.60;;;;;;3053457;19;5115;-90
2023/07/26 02:48:20;;;;;;;;;;;23.10;47.40;;;;;;3052971;19;4722;-89
2023/07/26 02:49:22;;;;;;;;;;;23.70;47.60;;;;;;3032360;19;5237;-89
2023/07/26 02:50:24;;;;;;;;;;;23.90;47.80;;;;;;3053769;19;4575;-90
2023/07/26 02:51:25;;;;;;;;;;;23.90;47.60;;;;;;3053297;19;5159;-91
2023/07/26 02:52:27;;;;;;;;;;;23.80;47.80;;;;;;3035296;19;5332;-89
2023/07/26 02:53:29;;;;;;;;;;;23.90;47.70;;;;;;3049032;19;5240;-90
2023/07/26 02:54:31;;;;;;;;;;;23.90;48.00;;;;;;3053079;19;5737;-89
2023/07/26 02:55:33;;;;;;;;;;;23.80;47.80;;;;;;3053647;19;4564;-90
2023/07/26 02:56:34;;;;;;;;;;;23.90;47.80;;;;;;3053331;19;5255;-90
2023/07/26 02:57:36;;;;;;;;;;;23.70;47.70;;;;;;3052586;19;4598;-90
2023/07/26 02:58:38;;;;;;;;;;;23.80;47.70;;;;;;3052591;19;4610;-89
2023/07/26 02:59:38;;;;;;;;;;;23.80;47.80;;;;;;3031957;19;5103;-91
2023/07/26 03:00:39;;;;;;;;;;;23.80;47.80;;;;;;3052494;19;5163;-90
2023/07/26 03:01:40;;;;;;;;;;;23.80;47.70;;;;;;3050575;19;4617;-90
2023/07/26 03:02:42;;;;;;;;;;;23.80;47.60;;;;;;3052376;19;5141;-89
2023/07/26 03:03:42;;;;;;;;;;;23.80;47.80;;;;;;3052196;19;4729;-88
2023/07/26 03:04:43;;;;;;;;;;;23.80;47.60;;;;;;3052489;19;4820;-92
2023/07/26 03:05:46;;;;;;;;;;;23.80;47.80;;;;;;3053192;19;5061;-88
2023/07/26 03:06:49;;;;;;;;;;;23.80;47.80;;;;;;3052936;19;5137;-89
2023/07/26 03:07:50;;;;;;;;;;;23.80;47.70;;;;;;3043286;19;4572;-90
2023/07/26 03:08:52;;;;;;;;;;;23.80;47.80;;;;;;3052578;19;4601;-88
2023/07/26 03:09:54;;;;;;;;;;;23.80;48.40;;;;;;3048149;19;5256;-89
2023/07/26 03:10:55;;;;;;;;;;;23.80;47.60;;;;;;3052859;19;4772;-90
2023/07/26 03:11:59;;;;;;;;;;;23.80;47.80;;;;;;3052136;19;5135;-90
2023/07/26 03:13:00;;;;;;;;;;;23.80;47.90;;;;;;3052862;19;5078;-90
2023/07/26 03:14:02;;;;;;;;;;;23.80;47.60;;;;;;3043233;19;6605;-89
2023/07/26 03:15:04;;;;;;;;;;;23.80;47.90;;;;;;3053258;19;4608;-90
2023/07/26 03:16:06;;;;;;;;;;;23.80;47.90;;;;;;3032453;19;5120;-89
2023/07/26 03:17:08;;;;;;;;;;;23.80;47.90;;;;;;3030978;19;4820;-90
2023/07/26 03:18:09;;;;;;;;;;;23.80;47.90;;;;;;3052980;19;876;-90
2023/07/26 03:19:11;;;;;;;;;;;23.80;47.80;;;;;;3051686;19;5022;-89
2023/07/26 03:20:13;;;;;;;;;;;23.70;47.80;;;;;;3052439;19;5136;-88
2023/07/26 03:21:15;;;;;;;;;;;23.80;47.80;;;;;;3052905;19;5211;-88
2023/07/26 03:22:16;;;;;;;;;;;23.70;47.70;;;;;;3052316;19;5052;-89
2023/07/26 03:23:17;;;;;;;;;;;23.70;47.60;;;;;;3052148;19;5093;-90
2023/07/26 03:24:17;;;;;;;;;;;23.70;47.80;;;;;;3052741;19;5218;-89
2023/07/26 03:25:19;;;;;;;;;;;23.70;47.80;;;;;;3052854;19;5276;-89
2023/07/26 03:26:20;;;;;;;;;;;23.70;47.80;;;;;;3031774;19;4677;-90
2023/07/26 03:27:21;;;;;;;;;;;23.80;48.00;;;;;;3054090;19;4621;-88
2023/07/26 03:28:22;;;;;;;;;;;23.70;47.70;;;;;;3052066;19;4661;-92
2023/07/26 03:29:24;;;;;;;;;;;23.70;47.90;;;;;;3055248;19;5386;-90
2023/07/26 03:30:26;;;;;;;;;;;23.70;48.00;;;;;;3056079;19;5054;-91
2023/07/26 03:31:30;;;;;;;;;;;23.80;48.00;;;;;;3054617;19;5140;-89
2023/07/26 03:32:33;;;;;;;;;;;23.70;47.80;;;;;;3046630;19;5762;-91
2023/07/26 03:33:34;;;;;;;;;;;23.80;48.00;;;;;;3055518;19;4711;-88
2023/07/26 03:34:37;;;;;;;;;;;23.70;48.00;;;;;;3056987;19;5139;-90
2023/07/26 03:35:38;;;;;;;;;;;23.70;47.90;;;;;;3056839;19;5245;-89
2023/07/26 03:36:41;;;;;;;;;;;23.70;48.00;;;;;;3056157;19;4542;-90
2023/07/26 03:37:41;;;;;;;;;;;23.70;47.90;;;;;;3056041;19;5154;-89
2023/07/26 03:38:43;;;;;;;;;;;23.70;47.80;;;;;;3055756;19;5180;-90
2023/07/26 03:39:45;;;;;;;;;;;23.70;47.90;;;;;;3055242;19;5116;-90
2023/07/26 03:40:46;;;;;;;;;;;23.70;48.30;;;;;;3055555;19;5174;-89
2023/07/26 03:41:47;;;;;;;;;;;23.70;48.40;;;;;;3033096;19;5054;-90
2023/07/26 03:42:48;;;;;;;;;;;23.80;48.40;;;;;;3046578;19;5234;-91
2023/07/26 03:43:50;;;;;;;;;;;23.90;48.00;;;;;;3055075;19;5216;-91
2023/07/26 03:44:51;;;;;;;;;;;23.90;47.80;;;;;;3055349;19;6093;-88
2023/07/26 03:45:54;;;;;;;;;;;24.00;47.80;;;;;;3056025;19;4748;-90
2023/07/26 03:46:55;;;;;;;;;;;24.00;47.80;;;;;;3055247;19;6217;-89
2023/07/26 03:47:55;;;;;;;;;;;24.10;47.70;;;;;;3055305;19;5114;-91
2023/07/26 03:48:56;;;;;;;;;;;24.10;47.70;;;;;;3053880;19;5724;-90
2023/07/26 03:49:59;;;;;;;;;;;24.10;47.60;;;;;;3054663;19;6221;-90
2023/07/26 03:51:01;;;;;;;;;;;24.10;47.80;;;;;;3046582;19;4654;-89
2023/07/26 03:52:04;;;;;;;;;;;24.10;47.90;;;;;;3046569;19;4689;-88
2023/07/26 03:53:06;;;;;;;;;;;24.10;47.50;;;;;;3055779;19;5041;-91
2023/07/26 03:54:07;;;;;;;;;;;24.10;47.70;;;;;;3055588;19;5127;-89
2023/07/26 03:55:09;;;;;;;;;;;24.10;47.80;;;;;;3055308;19;5190;-90
2023/07/26 03:56:10;;;;;;;;;;;24.10;47.50;;;;;;3033772;19;4636;-88
2023/07/26 03:57:12;;;;;;;;;;;24.10;47.60;;;;;;3055536;19;5369;-90
2023/07/26 03:58:13;;;;;;;;;;;24.10;47.70;;;;;;3054835;19;5226;-90
2023/07/26 03:59:15;;;;;;;;;;;24.10;47.90;;;;;;3055415;19;5055;-89
2023/07/26 04:00:15;;;;;;;;;;;24.10;47.70;;;;;;3053403;19;5131;-87
2023/07/26 04:01:21;;;;;;;;;;;24.10;47.20;;;;;;3055051;19;4647;-91
2023/07/26 04:02:23;;;;;;;;;;;24.10;47.60;;;;;;3054692;19;5086;-89
2023/07/26 04:03:24;;;;;;;;;;;24.00;47.60;;;;;;3055605;19;5107;-90
2023/07/26 04:04:24;;;;;;;;;;;24.10;47.20;;;;;;3054723;19;4782;-89
2023/07/26 04:05:26;;;;;;;;;;;24.00;47.50;;;;;;3056022;19;5137;-91
2023/07/26 04:06:27;;;;;;;;;;;24.00;47.80;;;;;;3055139;19;4710;-90
2023/07/26 04:07:29;;;;;;;;;;;24.00;47.90;;;;;;3036280;19;4695;-89
2023/07/26 04:08:30;;;;;;;;;;;24.10;47.70;;;;;;3054347;19;4625;-90
2023/07/26 04:09:32;;;;;;;;;;;24.10;47.90;;;;;;3055036;19;4757;-89
2023/07/26 04:10:34;;;;;;;;;;;24.10;48.20;;;;;;3055301;19;4845;-89
2023/07/26 04:11:36;;;;;;;;;;;24.10;47.90;;;;;;3054569;19;5118;-90
2023/07/26 04:12:37;;;;;;;;;;;24.10;47.90;;;;;;3054951;19;5071;-89
2023/07/26 04:13:37;;;;;;;;;;;24.20;47.90;;;;;;3034622;19;4572;-91
2023/07/26 04:14:39;;;;;;;;;;;24.10;47.80;;;;;;3055149;19;5134;-89
2023/07/26 04:15:40;;;;;;;;;;;24.20;47.90;;;;;;3053250;19;5156;-89
2023/07/26 04:16:42;;;;;;;;;;;24.20;47.80;;;;;;3055265;19;5168;-89
2023/07/26 04:17:42;;;;;;;;;;;24.20;47.80;;;;;;3055250;19;4601;-89
2023/07/26 04:18:43;;;;;;;;;;;24.20;48.00;;;;;;3055243;19;4622;-90
2023/07/26 04:19:44;;;;;;;;;;;24.20;48.20;;;;;;3054724;19;4746;-92
2023/07/26 04:20:45;;;;;;;;;;;24.20;48.00;;;;;;3052545;19;5055;-91
2023/07/26 04:21:45;;;;;;;;;;;24.20;48.00;;;;;;3055115;19;5205;-90
2023/07/26 04:22:46;;;;;;;;;;;24.20;48.60;;;;;;3054343;19;4768;-89
2023/07/26 04:23:48;;;;;;;;;;;24.20;48.00;;;;;;3054829;19;5110;-90
2023/07/26 04:24:50;;;;;;;;;;;24.20;48.10;;;;;;3055001;19;4614;-90
2023/07/26 04:25:50;;;;;;;;;;;24.20;48.00;;;;;;3053144;19;5354;-89
2023/07/26 04:26:53;;;;;;;;;;;24.20;48.10;;;;;;3054419;19;4731;-90
2023/07/26 04:27:54;;;;;;;;;;;24.20;48.10;;;;;;3054940;19;5193;-89
2023/07/26 04:28:54;;;;;;;;;;;24.20;48.20;;;;;;3054636;19;5212;-90
2023/07/26 04:29:55;;;;;;;;;;;24.10;47.90;;;;;;3054103;19;4587;-89
2023/07/26 04:30:56;;;;;;;;;;;24.20;48.10;;;;;;3054528;19;4664;-89
2023/07/26 04:31:57;;;;;;;;;;;24.20;48.00;;;;;;3054819;19;5022;-88
2023/07/26 04:32:59;;;;;;;;;;;24.20;48.20;;;;;;3055309;19;4569;-89
2023/07/26 04:34:00;;;;;;;;;;;24.10;48.10;;;;;;3054840;19;5265;-88
2023/07/26 04:35:01;;;;;;;;;;;24.20;48.20;;;;;;3056019;19;4580;-89
2023/07/26 04:36:03;;;;;;;;;;;24.10;48.10;;;;;;3058037;19;5217;-88
2023/07/26 04:37:04;;;;;;;;;;;24.10;48.10;;;;;;3057101;19;4649;-90
2023/07/26 04:38:05;;;;;;;;;;;24.10;48.00;;;;;;3036230;19;4529;-89
2023/07/26 04:39:06;;;;;;;;;;;24.10;48.20;;;;;;3056123;19;7299;-88
2023/07/26 04:40:09;;;;;;;;;;;24.20;48.40;;;;;;3055610;19;5315;-89
2023/07/26 04:41:10;;;;;;;;;;;24.20;48.30;;;;;;3053757;19;5243;-89
2023/07/26 04:42:11;;;;;;;;;;;24.20;48.00;;;;;;3054447;19;4540;-89
2023/07/26 04:43:20;;;;;;;;;;;24.30;47.70;;;;;;3054642;19;4814;-89
2023/07/26 04:44:26;;;;;;;;;;;24.30;48.00;;;;;;3053125;19;4583;-91
2023/07/26 04:45:27;;;;;;;;;;;24.30;48.10;;;;;;3054514;19;4649;-89
2023/07/26 04:46:27;;;;;;;;;;;24.30;48.00;;;;;;3049235;19;5202;-87
2023/07/26 04:47:30;;;;;;;;;;;24.30;47.90;;;;;;3058347;19;5124;-89
2023/07/26 04:48:32;;;;;;;;;;;24.30;48.00;;;;;;3057603;19;5265;-89
2023/07/26 04:49:34;;;;;;;;;;;24.30;48.10;;;;;;3058101;19;5141;-90
2023/07/26 04:50:36;;;;;;;;;;;24.30;48.10;;;;;;3057156;19;4802;-89
2023/07/26 04:51:37;;;;;;;;;;;24.30;48.10;;;;;;3057493;19;4675;-89
2023/07/26 04:52:38;;;;;;;;;;;24.30;48.10;;;;;;3057900;19;4601;-89
2023/07/26 04:53:39;;;;;;;;;;;24.30;48.40;;;;;;3056644;19;5383;-90
2023/07/26 04:54:42;;;;;;;;;;;24.30;47.80;;;;;;3048505;19;4811;-89
2023/07/26 04:55:43;;;;;;;;;;;24.30;48.00;;;;;;3057408;19;4602;-89
2023/07/26 04:56:43;;;;;;;;;;;24.30;48.40;;;;;;3057284;19;4577;-90
2023/07/26 04:57:45;;;;;;;;;;;24.30;48.00;;;;;;3057176;19;4910;-89
2023/07/26 04:58:46;;;;;;;;;;;24.30;48.10;;;;;;3057094;19;5067;-88
2023/07/26 04:59:47;;;;;;;;;;;24.30;48.40;;;;;;3057623;19;5184;-89
2023/07/26 05:00:48;;;;;;;;;;;24.30;48.10;;;;;;3057362;19;4672;-90
2023/07/26 05:01:51;;;;;;;;;;;24.30;48.40;;;;;;3056980;19;5226;-89
2023/07/26 05:02:52;;;;;;;;;;;24.30;48.00;;;;;;3057610;19;4568;-90
2023/07/26 05:03:52;;;;;;;;;;;24.30;48.30;;;;;;3055742;19;5128;-90
2023/07/26 05:04:53;;;;;;;;;;;24.30;48.00;;;;;;3057466;19;5159;-88
2023/07/26 05:05:55;;;;;;;;;;;24.30;48.10;;;;;;3056304;19;5191;-88
2023/07/26 05:06:57;;;;;;;;;;;24.30;48.10;;;;;;3055818;19;5230;-89
2023/07/26 05:07:57;;;;;;;;;;;24.30;48.20;;;;;;3054640;19;4661;-89
2023/07/26 05:08:59;;;;;;;;;;;24.20;48.40;;;;;;3038687;19;4952;-90
2023/07/26 05:10:00;;;;;;;;;;;24.30;48.10;;;;;;3056051;19;5107;-89
2023/07/26 05:11:02;;;;;;;;;;;24.30;48.50;;;;;;3056283;19;5149;-90
2023/07/26 05:12:06;;;;;;;;;;;24.30;48.40;;;;;;3055934;19;5100;-90
2023/07/26 05:13:07;;;;;;;;;;;24.30;48.20;;;;;;3039798;19;5066;-89
2023/07/26 05:14:08;;;;;;;;;;;24.30;48.20;;;;;;3056316;19;5093;-89
2023/07/26 05:15:09;;;;;;;;;;;24.30;48.30;;;;;;3055910;19;5116;-90
2023/07/26 05:16:09;;;;;;;;;;;24.30;48.20;;;;;;3056610;19;894;-89
2023/07/26 05:17:10;;;;;;;;;;;24.30;48.60;;;;;;3055508;19;5248;-89
2023/07/26 05:18:10;;;;;;;;;;;24.40;48.40;;;;;;3056952;19;5155;-91
2023/07/26 05:19:11;;;;;;;;;;;24.40;48.50;;;;;;3056539;19;5126;-91
2023/07/26 05:20:14;;;;;;;;;;;24.50;48.50;;;;;;3056597;19;5132;-89
2023/07/26 05:21:14;;;;;;;;;;;24.50;48.10;;;;;;3055581;19;5101;-88
2023/07/26 05:22:15;;;;;;;;;;;24.40;47.90;;;;;;3056897;19;5272;-90
2023/07/26 05:23:16;;;;;;;;;;;24.50;48.40;;;;;;3056647;19;5106;-89
2023/07/26 05:24:18;;;;;;;;;;;24.40;48.10;;;;;;3056467;19;5218;-88
2023/07/26 05:25:20;;;;;;;;;;;24.40;48.30;;;;;;3056827;19;4636;-89
2023/07/26 05:26:22;;;;;;;;;;;24.40;48.30;;;;;;3056206;19;5199;-89
2023/07/26 05:27:23;;;;;;;;;;;24.40;48.10;;;;;;3056745;19;5058;-90
2023/07/26 05:28:24;;;;;;;;;;;24.40;48.30;;;;;;3056884;19;5140;-89
2023/07/26 05:29:24;;;;;;;;;;;24.50;48.30;;;;;;3047589;19;4731;-89
2023/07/26 05:30:26;;;;;;;;;;;24.40;48.30;;;;;;3057442;19;4618;-89
2023/07/26 05:31:26;;;;;;;;;;;24.40;48.60;;;;;;3056978;19;4637;-90
2023/07/26 05:32:28;;;;;;;;;;;24.40;48.10;;;;;;3057893;19;5102;-89
2023/07/26 05:33:28;;;;;;;;;;;24.40;48.30;;;;;;3056651;19;5315;-89
2023/07/26 05:34:29;;;;;;;;;;;24.40;48.50;;;;;;3054136;19;5268;-89
2023/07/26 05:35:29;;;;;;;;;;;24.40;48.30;;;;;;3056308;19;4696;-90
2023/07/26 05:36:30;;;;;;;;;;;24.40;48.10;;;;;;3056099;19;5102;-89
2023/07/26 05:37:34;;;;;;;;;;;24.40;48.30;;;;;;3052127;19;5088;-90
2023/07/26 05:38:36;;;;;;;;;;;24.40;48.30;;;;;;3035355;19;4597;-89
2023/07/26 05:39:38;;;;;;;;;;;24.40;48.30;;;;;;3054771;19;4554;-91
2023/07/26 05:40:40;;;;;;;;;;;24.40;48.40;;;;;;3057095;19;5085;-91
2023/07/26 05:41:41;;;;;;;;;;;24.40;48.30;;;;;;3056420;19;5188;-88
2023/07/26 05:42:43;;;;;;;;;;;24.40;48.20;;;;;;3056905;19;5946;-89
2023/07/26 05:43:44;;;;;;;;;;;24.40;48.20;;;;;;3057113;19;5023;-88
2023/07/26 05:44:44;;;;;;;;;;;24.40;48.50;;;;;;3056798;19;4599;-89
2023/07/26 05:45:45;;;;;;;;;;;24.40;48.40;;;;;;3057106;19;5137;-90
2023/07/26 05:46:47;;;;;;;;;;;24.40;48.40;;;;;;3056931;19;5239;-89
2023/07/26 05:47:48;;;;;;;;;;;24.30;48.30;;;;;;3057138;19;4928;-89
2023/07/26 05:48:49;;;;;;;;;;;24.40;48.40;;;;;;3057193;19;4552;-89
2023/07/26 05:49:49;;;;;;;;;;;24.30;48.40;;;;;;3056667;19;5077;-89
2023/07/26 05:50:50;;;;;;;;;;;24.30;48.20;;;;;;3056081;19;4627;-90
2023/07/26 05:51:53;;;;;;;;;;;24.30;48.00;;;;;;3056652;19;4649;-88
2023/07/26 05:52:53;;;;;;;;;;;24.30;48.20;;;;;;3056454;19;4629;-88
2023/07/26 05:53:55;;;;;;;;;;;24.30;48.20;;;;;;3056800;19;4572;-89
2023/07/26 05:54:56;;;;;;;;;;;24.30;48.20;;;;;;3052529;19;5192;-89
2023/07/26 05:55:58;;;;;;;;;;;24.30;48.50;;;;;;3055693;19;4569;-93
2023/07/26 05:57:00;;;;;;;;;;;24.30;48.30;;;;;;3057951;19;5158;-89
2023/07/26 05:58:01;;;;;;;;;;;24.30;48.20;;;;;;3057221;19;5096;-89
2023/07/26 05:59:03;;;;;;;;;;;24.30;48.60;;;;;;3054864;19;4674;-89
2023/07/26 06:00:05;;;;;;;;;;;24.30;48.30;;;;;;3057573;19;5059;-88
2023/07/26 06:01:06;;;;;;;;;;;24.30;48.30;;;;;;3056381;19;5254;-91
2023/07/26 06:02:06;;;;;;;;;;;24.30;48.60;;;;;;3056803;19;5366;-90
2023/07/26 06:03:11;;;;;;;;;;;24.30;49.20;;;;;;3056250;19;5078;-88
2023/07/26 06:04:12;;;;;;;;;;;24.40;48.70;;;;;;3056625;19;5320;-89
2023/07/26 06:05:15;;;;;;;;;;;24.50;48.50;;;;;;3056754;19;4622;-90